Time;durP1;ratioP1;P1;durP2;ratioP2;P2;SDS_P1;SDS_P2;PMS_P1;PMS_P2;Temp;Humidity;BMP_temperature;BMP_pressure;BME280_temperature;BME280_humidity;BME280_pressure;Samples;Min_cycle;Max_cycle;Signal;HPM_P1;HPM_P2
2021/07/29 00:00:18;;;;;;;7.10;4.80;;;;;;;18.23;88.13;100291.22;5095011;28;20198;-70
2021/07/29 00:02:43;;;;;;;5.57;4.40;;;;;;;18.17;88.65;100297.16;5095157;28;20649;-70
2021/07/29 00:05:08;;;;;;;9.37;4.37;;;;;;;18.17;88.54;100290.91;5095055;28;20252;-70
2021/07/29 00:07:34;;;;;;;7.97;4.70;;;;;;;18.00;89.61;100287.94;5095224;28;20734;-70
2021/07/29 00:09:59;;;;;;;6.60;4.20;;;;;;;18.00;89.76;100295.19;5077935;28;20631;-70
2021/07/29 00:12:24;;;;;;;6.17;4.60;;;;;;;17.97;89.83;100292.78;5096020;28;20174;-70
2021/07/29 00:14:51;;;;;;;6.87;4.43;;;;;;;17.91;90.00;100287.94;5096171;28;20178;-70
2021/07/29 00:17:28;;;;;;;7.83;4.17;;;;;;;17.69;90.95;100289.03;5094981;28;20283;-70
2021/07/29 00:19:54;;;;;;;5.80;4.10;;;;;;;17.63;91.41;100284.19;5094779;28;20226;-70
2021/07/29 00:22:19;;;;;;;4.40;4.00;;;;;;;17.70;91.38;100278.09;5096134;28;20186;-70
2021/07/29 00:24:44;;;;;;;4.77;4.27;;;;;;;17.71;90.75;100276.25;5094726;28;20177;-70
2021/07/29 00:27:09;;;;;;;8.00;4.67;;;;;;;17.70;91.01;100278.09;5094569;28;20202;-69
2021/07/29 00:29:35;;;;;;;4.97;3.90;;;;;;;17.52;91.44;100277.06;5077426;28;20178;-69
2021/07/29 00:32:00;;;;;;;4.27;3.80;;;;;;;17.48;92.06;100267.56;5094995;28;20226;-70
2021/07/29 00:34:25;;;;;;;4.93;4.00;;;;;;;17.35;92.76;100275.03;5077851;28;20185;-68
2021/07/29 00:36:51;;;;;;;5.03;3.90;;;;;;;17.29;93.50;100271.03;5094267;28;20701;-69
2021/07/29 00:39:16;;;;;;;8.30;4.70;;;;;;;17.34;93.23;100274.16;5094148;28;20210;-69
2021/07/29 00:41:41;;;;;;;7.57;4.27;;;;;;;17.34;93.28;100265.22;5094438;28;20193;-70
2021/07/29 00:44:07;;;;;;;4.43;4.03;;;;;;;17.39;92.62;100265.66;5095934;28;20184;-69
2021/07/29 00:46:33;;;;;;;3.93;3.53;;;;;;;17.37;92.78;100262.25;5094432;28;20246;-70
2021/07/29 00:49:00;;;;;;;5.93;4.00;;;;;;;17.17;94.18;100264.91;5077242;28;20567;-69
2021/07/29 00:51:26;;;;;;;5.77;4.10;;;;;;;17.25;93.44;100272.31;5077069;28;20169;-70
2021/07/29 00:53:52;;;;;;;9.17;4.30;;;;;;;17.35;93.27;100272.31;5093883;28;20202;-70
2021/07/29 00:56:18;;;;;;;6.03;3.93;;;;;;;17.28;93.66;100266.63;5076790;28;20277;-69
2021/07/29 00:58:43;;;;;;;5.93;4.30;;;;;;;17.25;93.88;100264.22;5093556;28;20587;-69
2021/07/29 01:01:08;;;;;;;4.87;3.90;;;;;;;17.22;94.93;100266.34;5095051;28;20174;-69
2021/07/29 01:03:33;;;;;;;6.50;4.17;;;;;;;17.22;94.20;100269.03;5093589;28;20257;-69
2021/07/29 01:05:59;;;;;;;7.80;4.60;;;;;;;17.34;94.07;100266.06;5093635;28;20237;-69
2021/07/29 01:08:24;;;;;;;5.90;4.47;;;;;;;17.43;92.78;100262.53;5094948;28;20178;-69
2021/07/29 01:10:49;;;;;;;6.30;4.50;;;;;;;17.44;92.73;100263.41;5093551;28;20212;-69
2021/07/29 01:13:15;;;;;;;5.37;4.20;;;;;;;17.44;93.08;100266.09;5094640;28;20626;-69
2021/07/29 01:15:40;;;;;;;5.93;3.87;;;;;;;17.36;93.72;100256.00;5093799;28;20214;-69
2021/07/29 01:18:05;;;;;;;6.10;4.07;;;;;;;17.27;93.90;100259.53;5094343;28;20547;-68
2021/07/29 01:20:31;;;;;;;8.07;4.17;;;;;;;17.45;92.70;100257.00;5094682;28;20202;-69
2021/07/29 01:22:56;;;;;;;6.23;4.60;;;;;;;17.22;94.54;100259.09;5093633;28;20206;-69
2021/07/29 01:25:21;;;;;;;6.13;4.27;;;;;;;17.26;94.32;100251.59;5075944;28;20289;-70
2021/07/29 01:27:47;;;;;;;5.23;4.23;;;;;;;17.18;94.76;100244.19;5093050;28;20174;-69
2021/07/29 01:30:12;;;;;;;5.80;4.50;;;;;;;17.16;94.97;100244.31;5093401;28;20269;-69
2021/07/29 01:32:39;;;;;;;5.13;4.63;;;;;;;17.07;95.59;100247.81;5094326;28;20182;-69
2021/07/29 01:35:06;;;;;;;5.43;4.40;;;;;;;17.13;94.67;100246.44;5076305;28;20174;-69
2021/07/29 01:37:31;;;;;;;4.90;4.40;;;;;;;17.01;94.77;100251.06;5095229;28;20173;-69
2021/07/29 01:39:56;;;;;;;6.87;4.43;;;;;;;17.08;95.05;100251.38;5092707;28;20202;-69
2021/07/29 01:42:21;;;;;;;4.73;4.27;;;;;;;17.10;94.50;100257.50;5075841;28;20185;-69
2021/07/29 01:44:47;;;;;;;7.03;4.40;;;;;;;17.07;94.79;100264.00;5092709;28;20178;-70
2021/07/29 01:47:12;;;;;;;7.97;4.53;;;;;;;16.92;95.68;100259.97;5092744;28;20190;-71
2021/07/29 01:49:37;;;;;;;5.80;4.93;;;;;;;16.84;95.69;100257.09;5093222;28;20196;-68
2021/07/29 01:52:03;;;;;;;4.93;4.33;;;;;;;16.91;94.87;100260.09;5075858;28;20627;-68
2021/07/29 01:54:28;;;;;;;7.23;4.67;;;;;;;16.79;94.94;100256.66;5092965;28;20520;-69
2021/07/29 01:56:53;;;;;;;5.53;4.20;;;;;;;16.71;95.86;100253.75;5092641;28;20269;-70
2021/07/29 01:59:19;;;;;;;7.57;4.93;;;;;;;16.62;96.69;100249.16;5093449;28;20574;-69
2021/07/29 02:01:44;;;;;;;6.20;4.87;;;;;;;16.60;95.99;100243.03;5076452;28;20171;-69
2021/07/29 02:04:10;;;;;;;10.47;4.43;;;;;;;16.61;95.49;100245.59;5075830;28;20219;-68
2021/07/29 02:06:36;;;;;;;5.17;4.60;;;;;;;16.60;95.72;100251.13;5093109;28;20240;-69
2021/07/29 02:09:01;;;;;;;10.00;4.60;;;;;;;16.52;95.67;100241.88;5075694;28;20701;-68
2021/07/29 02:11:30;;;;;;;8.60;4.27;;;;;;;16.53;95.60;100248.13;5092382;28;20231;-67
2021/07/29 02:13:56;;;;;;;4.73;4.07;;;;;;;16.50;95.51;100240.31;5092335;28;20170;-68
2021/07/29 02:16:22;;;;;;;6.20;4.10;;;;;;;16.47;95.89;100248.66;5092207;28;20243;-70
2021/07/29 02:18:47;;;;;;;6.57;4.50;;;;;;;16.46;95.91;100244.25;5080900;28;20174;-70
2021/07/29 02:21:12;;;;;;;8.33;3.90;;;;;;;16.61;95.64;100251.00;5104703;28;20219;-70
2021/07/29 02:23:38;;;;;;;9.47;4.23;;;;;;;16.48;95.32;100245.81;5103171;28;20192;-69
2021/07/29 02:26:03;;;;;;;6.97;4.57;;;;;;;16.65;94.76;100244.34;5081269;28;20194;-70
2021/07/29 02:28:28;;;;;;;5.60;4.50;;;;;;;16.69;94.66;100251.19;5075926;28;20178;-69
2021/07/29 02:30:55;;;;;;;10.77;4.40;;;;;;;16.64;93.86;100247.19;5092496;28;20179;-69
2021/07/29 02:33:20;;;;;;;6.80;4.60;;;;;;;16.71;93.25;100251.91;5092455;28;20252;-69
2021/07/29 02:35:49;;;;;;;7.93;4.27;;;;;;;16.80;92.83;100259.22;5092183;28;20662;-68
2021/07/29 02:38:15;;;;;;;5.53;4.53;;;;;;;16.87;92.10;100262.22;5075415;28;20174;-68
2021/07/29 02:40:41;;;;;;;5.60;4.63;;;;;;;16.99;91.48;100255.75;5092369;28;20259;-68
2021/07/29 02:43:07;;;;;;;9.97;4.20;;;;;;;16.94;91.63;100260.69;5092425;28;20204;-69
2021/07/29 02:45:32;;;;;;;5.40;4.37;;;;;;;16.99;90.76;100268.38;5092549;28;20658;-68
2021/07/29 02:47:57;;;;;;;6.20;4.20;;;;;;;16.94;90.58;100259.84;5093641;28;20194;-69
2021/07/29 02:50:22;;;;;;;5.60;3.93;;;;;;;16.82;90.81;100261.78;5092138;28;20236;-69
2021/07/29 02:52:48;;;;;;;9.47;3.60;;;;;;;16.78;90.75;100263.03;5094294;28;20178;-70
2021/07/29 02:55:13;;;;;;;6.30;3.90;;;;;;;16.74;91.72;100265.16;5075174;28;20569;-69
2021/07/29 02:57:38;;;;;;;5.53;4.20;;;;;;;16.81;90.49;100265.47;5092379;28;20213;-70
2021/07/29 03:00:04;;;;;;;4.70;3.93;;;;;;;16.70;91.43;100261.00;5093414;28;20202;-71
2021/07/29 03:02:30;;;;;;;9.30;4.50;;;;;;;16.72;90.95;100266.25;5092057;28;20178;-69
2021/07/29 03:04:55;;;;;;;9.07;4.73;;;;;;;16.64;91.38;100260.66;5075231;28;20283;-68
2021/07/29 03:07:20;;;;;;;4.77;3.90;;;;;;;16.80;90.24;100258.38;5093370;28;20174;-69
2021/07/29 03:09:45;;;;;;;6.27;3.70;;;;;;;16.71;90.29;100251.91;5093038;28;20232;-68
2021/07/29 03:12:11;;;;;;;8.43;4.43;;;;;;;16.61;90.64;100250.13;5075991;28;20197;-69
2021/07/29 03:14:36;;;;;;;5.13;4.07;;;;;;;16.55;90.65;100251.53;5098082;28;20204;-70
2021/07/29 03:17:01;;;;;;;4.57;3.90;;;;;;;16.60;90.76;100248.44;5086271;28;20218;-68
2021/07/29 03:19:28;;;;;;;7.90;3.90;;;;;;;16.70;90.14;100254.75;5087064;28;20205;-69
2021/07/29 03:21:54;;;;;;;6.40;4.10;;;;;;;16.70;89.49;100247.53;5111029;28;20170;-70
2021/07/29 03:24:19;;;;;;;8.73;3.93;;;;;;;16.55;90.46;100255.06;5093194;28;20186;-69
2021/07/29 03:26:44;;;;;;;8.03;4.20;;;;;;;16.65;90.70;100248.88;5074817;28;20194;-70
2021/07/29 03:29:10;;;;;;;4.87;4.03;;;;;;;16.64;90.31;100249.88;5092460;28;20162;-71
2021/07/29 03:31:35;;;;;;;7.97;4.07;;;;;;;16.60;89.95;100262.75;5091895;28;20244;-70
2021/07/29 03:34:00;;;;;;;5.67;3.87;;;;;;;16.83;88.55;100258.94;5092027;28;20175;-70
2021/07/29 03:36:25;;;;;;;4.87;3.77;;;;;;;16.76;88.74;100263.19;5092658;28;20186;-70
2021/07/29 03:38:51;;;;;;;4.87;3.80;;;;;;;16.76;89.38;100252.41;5075126;28;20189;-70
2021/07/29 03:41:16;;;;;;;6.63;4.00;;;;;;;16.71;88.57;100251.06;5095667;28;20167;-70
2021/07/29 03:43:41;;;;;;;10.63;4.27;;;;;;;16.84;88.66;100249.88;5096606;28;20174;-71
2021/07/29 03:46:07;;;;;;;7.20;3.90;;;;;;;16.76;89.73;100240.78;5095051;28;20609;-70
2021/07/29 03:48:32;;;;;;;5.70;3.87;;;;;;;16.74;89.43;100248.13;5095267;28;20174;-69
2021/07/29 03:50:57;;;;;;;5.87;3.80;;;;;;;16.69;88.58;100242.25;5095054;28;20177;-70
2021/07/29 03:53:22;;;;;;;10.70;4.17;;;;;;;16.84;88.56;100240.94;5096757;28;20197;-70
2021/07/29 03:55:48;;;;;;;6.57;3.67;;;;;;;16.94;87.91;100247.22;5094603;28;20194;-70
2021/07/29 03:58:13;;;;;;;4.43;3.40;;;;;;;16.98;87.36;100234.31;5095002;28;20175;-69
2021/07/29 04:00:38;;;;;;;4.60;3.43;;;;;;;16.96;85.38;100226.38;5095282;28;20206;-70
2021/07/29 04:03:07;;;;;;;5.97;3.53;;;;;;;16.90;86.32;100237.69;5078392;28;20178;-70
2021/07/29 04:05:33;;;;;;;5.83;3.63;;;;;;;16.85;86.97;100234.56;5094944;28;20194;-68
2021/07/29 04:07:58;;;;;;;4.50;3.63;;;;;;;16.84;88.13;100239.09;5095998;28;20171;-68
2021/07/29 04:10:23;;;;;;;6.87;3.30;;;;;;;16.82;88.03;100229.44;5095982;28;20170;-68
2021/07/29 04:12:48;;;;;;;8.50;3.53;;;;;;;16.75;85.76;100231.81;5077774;28;20174;-69
2021/07/29 04:17:41;;;;;;;7.03;3.90;;;;;;;16.94;86.08;100239.13;5096078;22;20238;-68
2021/07/29 04:20:08;;;;;;;4.23;3.50;;;;;;;17.00;86.47;100243.97;5074611;28;20199;-67
2021/07/29 04:22:33;;;;;;;6.57;3.60;;;;;;;16.92;86.78;100245.66;5073247;28;20764;-67
2021/07/29 04:24:58;;;;;;;8.10;4.30;;;;;;;16.88;86.43;100245.06;5090294;28;20179;-68
2021/07/29 04:27:23;;;;;;;4.83;3.47;;;;;;;16.75;87.65;100249.84;5074662;28;20194;-69
2021/07/29 04:29:49;;;;;;;7.20;3.53;;;;;;;16.78;84.36;100249.56;5056581;28;20559;-66
2021/07/29 04:32:15;;;;;;;6.13;3.27;;;;;;;16.93;84.67;100248.19;5073274;28;20219;-67
2021/07/29 04:34:40;;;;;;;10.03;3.70;;;;;;;16.95;83.84;100251.63;5073375;28;20183;-68
2021/07/29 04:37:06;;;;;;;7.27;3.50;;;;;;;17.08;82.58;100252.22;5074423;28;20590;-67
2021/07/29 04:39:33;;;;;;;7.27;3.50;;;;;;;17.10;83.69;100249.41;5074467;28;20191;-68
2021/07/29 04:41:58;;;;;;;5.13;3.27;;;;;;;17.10;83.01;100252.97;5073152;28;20630;-67
2021/07/29 04:44:24;;;;;;;6.80;3.17;;;;;;;17.03;81.59;100246.38;5074865;28;20171;-68
2021/07/29 04:46:49;;;;;;;7.77;3.47;;;;;;;17.05;81.92;100241.72;5074423;28;20202;-67
2021/07/29 04:49:18;;;;;;;6.43;3.70;;;;;;;17.03;82.14;100237.44;5074349;28;20171;-67
2021/07/29 04:51:44;;;;;;;8.63;3.30;;;;;;;17.16;81.46;100243.47;5073133;28;20666;-67
2021/07/29 04:54:09;;;;;;;6.97;3.30;;;;;;;17.00;82.11;100249.34;5073061;28;20182;-68
2021/07/29 04:56:34;;;;;;;7.13;3.27;;;;;;;17.11;81.08;100241.19;5074156;28;20191;-68
2021/07/29 04:59:00;;;;;;;5.83;3.10;;;;;;;17.28;80.81;100247.75;5073139;28;20201;-68
2021/07/29 05:01:25;;;;;;;5.03;3.10;;;;;;;17.20;80.41;100236.81;5072871;28;20692;-67
2021/07/29 05:03:50;;;;;;;4.70;2.97;;;;;;;17.38;79.44;100247.75;5073881;28;20225;-68
2021/07/29 05:06:16;;;;;;;3.40;2.93;;;;;;;17.14;80.64;100246.31;5074219;28;20195;-68
2021/07/29 05:08:41;;;;;;;9.00;3.57;;;;;;;17.24;80.83;100251.72;5073855;28;20171;-68
2021/07/29 05:11:07;;;;;;;5.07;3.20;;;;;;;17.28;80.67;100246.91;5072696;28;20531;-68
2021/07/29 05:13:33;;;;;;;4.80;3.40;;;;;;;17.56;79.87;100259.59;5073729;28;20178;-67
2021/07/29 05:15:59;;;;;;;9.43;3.43;;;;;;;17.66;78.57;100246.97;5072437;28;20206;-67
2021/07/29 05:18:24;;;;;;;6.43;3.50;;;;;;;17.68;79.34;100245.00;5074039;28;20170;-68
2021/07/29 05:20:49;;;;;;;6.63;3.40;;;;;;;17.66;77.79;100246.97;5072494;28;20195;-68
2021/07/29 05:23:15;;;;;;;7.53;3.50;;;;;;;17.66;76.76;100241.56;5073815;28;20167;-68
2021/07/29 05:25:40;;;;;;;5.00;3.00;;;;;;;17.79;74.68;100249.41;5072268;28;20682;-67
2021/07/29 05:28:06;;;;;;;5.67;2.87;;;;;;;17.74;75.18;100235.50;5072306;28;20635;-68
2021/07/29 05:30:31;;;;;;;3.93;3.40;;;;;;;17.81;73.92;100248.28;5073037;28;20202;-68
2021/07/29 05:33:00;;;;;;;4.83;3.20;;;;;;;17.96;73.63;100243.31;5056739;28;20254;-67
2021/07/29 05:35:25;;;;;;;6.43;3.37;;;;;;;18.02;71.65;100225.69;5072101;28;20174;-67
2021/07/29 05:37:50;;;;;;;8.70;3.60;;;;;;;18.10;71.51;100231.22;5073416;28;20197;-67
2021/07/29 05:40:15;;;;;;;11.70;5.60;;;;;;;18.18;72.43;100231.34;5074080;28;20239;-67
2021/07/29 05:42:41;;;;;;;5.93;3.17;;;;;;;18.39;71.14;100228.47;5073254;28;20531;-67
2021/07/29 05:45:06;;;;;;;6.93;3.40;;;;;;;18.20;72.79;100218.56;5073207;28;20166;-66
2021/07/29 05:47:32;;;;;;;6.53;3.67;;;;;;;18.56;71.96;100240.38;5071530;28;20682;-67
2021/07/29 05:49:57;;;;;;;6.63;3.33;;;;;;;18.44;72.43;100234.28;5072958;28;20177;-66
2021/07/29 05:52:22;;;;;;;4.23;2.87;;;;;;;18.82;71.49;100235.22;5072778;28;20171;-67
2021/07/29 05:54:48;;;;;;;3.60;2.80;;;;;;;18.95;71.75;100246.53;5072725;28;20630;-67
2021/07/29 05:57:13;;;;;;;3.90;2.67;;;;;;;18.64;72.86;100237.84;5072837;28;20289;-67
2021/07/29 05:59:38;;;;;;;5.63;3.10;;;;;;;18.33;72.61;100235.31;5073585;28;20673;-66
2021/07/29 06:02:04;;;;;;;4.47;3.03;;;;;;;18.46;73.30;100235.00;5071127;28;20210;-68
2021/07/29 06:04:29;;;;;;;5.47;2.87;;;;;;;18.30;74.72;100234.75;5071459;28;20214;-68
2021/07/29 06:06:55;;;;;;;3.53;2.60;;;;;;;18.27;74.12;100233.22;5071306;28;20195;-67
2021/07/29 06:09:20;;;;;;;5.33;2.97;;;;;;;18.28;76.16;100229.50;5072671;28;20171;-68
2021/07/29 06:11:45;;;;;;;6.80;3.50;;;;;;;18.58;74.94;100238.38;5071562;28;20216;-67
2021/07/29 06:14:11;;;;;;;9.23;5.23;;;;;;;18.43;74.71;100232.59;5072884;28;20174;-68
2021/07/29 06:16:37;;;;;;;3.57;2.90;;;;;;;18.31;73.65;100226.50;5072350;28;20209;-67
2021/07/29 06:19:07;;;;;;;9.57;4.17;;;;;;;18.49;72.22;100225.75;5072592;28;20690;-68
2021/07/29 06:21:33;;;;;;;5.30;2.70;;;;;;;18.41;71.67;100227.34;5071946;28;20159;-68
2021/07/29 06:23:58;;;;;;;7.83;3.23;;;;;;;18.33;72.68;100224.50;5071596;28;20175;-68
2021/07/29 06:26:24;;;;;;;7.33;2.93;;;;;;;18.52;73.35;100226.31;5072680;28;20194;-67
2021/07/29 06:28:49;;;;;;;4.57;2.97;;;;;;;18.81;72.16;100220.84;5072573;28;20262;-68
2021/07/29 06:31:14;;;;;;;4.73;2.97;;;;;;;18.74;70.82;100234.09;5072913;28;20171;-67
2021/07/29 06:33:39;;;;;;;5.77;2.97;;;;;;;18.76;72.39;100220.44;5072594;28;20171;-67
2021/07/29 06:36:05;;;;;;;4.03;3.27;;;;;;;18.84;72.51;100225.09;5072780;28;20214;-68
2021/07/29 06:38:31;;;;;;;6.63;3.50;;;;;;;18.82;71.04;100230.66;5072519;28;20261;-67
2021/07/29 06:40:56;;;;;;;5.47;3.43;;;;;;;18.95;71.49;100219.47;5072417;28;20197;-67
2021/07/29 06:43:21;;;;;;;6.80;2.83;;;;;;;18.85;70.19;100229.50;5071553;28;20171;-68
2021/07/29 06:45:47;;;;;;;5.33;2.83;;;;;;;18.86;70.74;100223.09;5071426;28;20641;-68
2021/07/29 06:48:12;;;;;;;3.20;2.83;;;;;;;19.13;70.18;100223.09;5072616;28;20257;-67
2021/07/29 06:50:37;;;;;;;8.93;3.83;;;;;;;19.34;69.04;100220.16;5072321;28;20521;-68
2021/07/29 06:53:02;;;;;;;6.47;4.40;;;;;;;19.54;68.75;100234.41;5072439;28;20206;-68
2021/07/29 06:55:29;;;;;;;6.40;3.23;;;;;;;19.39;68.05;100233.22;5072220;28;20171;-67
2021/07/29 06:57:54;;;;;;;5.30;3.00;;;;;;;19.47;69.09;100226.03;5072349;28;20585;-68
2021/07/29 07:00:20;;;;;;;8.30;3.80;;;;;;;19.39;67.87;100212.44;5072404;28;20190;-67
2021/07/29 07:02:46;;;;;;;3.90;2.60;;;;;;;19.52;68.39;100231.84;5072525;28;20182;-66
2021/07/29 07:05:11;;;;;;;7.50;3.17;;;;;;;19.39;68.47;100228.66;5071540;28;20182;-67
2021/07/29 07:07:36;;;;;;;8.93;3.80;;;;;;;19.35;69.04;100236.22;5074811;28;20188;-67
2021/07/29 07:10:02;;;;;;;5.60;3.17;;;;;;;18.67;70.07;100226.75;5084140;28;20171;-68
2021/07/29 07:12:27;;;;;;;4.17;3.03;;;;;;;18.56;70.17;100233.13;5083900;28;20174;-68
2021/07/29 07:14:52;;;;;;;5.67;3.00;;;;;;;18.78;71.13;100229.25;5085047;28;20175;-68
2021/07/29 07:17:18;;;;;;;5.27;3.00;;;;;;;18.83;69.79;100237.75;5074789;28;20203;-67
2021/07/29 07:19:44;;;;;;;4.67;3.00;;;;;;;18.89;69.01;100231.75;5076338;28;20589;-68
2021/07/29 07:22:10;;;;;;;5.60;3.60;;;;;;;18.74;68.67;100228.69;5074974;28;20270;-68
2021/07/29 07:24:35;;;;;;;3.70;2.43;;;;;;;19.08;65.55;100244.34;5076672;28;20504;-67
2021/07/29 07:27:04;;;;;;;4.40;2.70;;;;;;;19.26;66.30;100236.28;5075034;28;20191;-68
2021/07/29 07:29:30;;;;;;;4.70;3.10;;;;;;;19.40;64.90;100226.81;5076070;28;20175;-70
2021/07/29 07:31:55;;;;;;;8.77;2.90;;;;;;;19.33;64.31;100240.09;5074549;28;20232;-68
2021/07/29 07:34:21;;;;;;;2.90;2.23;;;;;;;19.12;63.54;100243.03;5076857;28;20635;-68
2021/07/29 07:36:46;;;;;;;5.20;3.00;;;;;;;19.03;62.34;100234.00;5075904;28;20187;-68
2021/07/29 07:39:11;;;;;;;7.97;4.53;;;;;;;19.35;60.92;100246.22;5075556;28;20175;-68
2021/07/29 07:41:37;;;;;;;4.07;2.57;;;;;;;19.32;62.57;100231.09;5057836;28;20167;-68
2021/07/29 07:44:02;;;;;;;6.27;2.83;;;;;;;19.41;61.63;100250.16;5075615;28;20167;-67
2021/07/29 07:46:27;;;;;;;7.27;2.67;;;;;;;19.43;61.80;100234.63;5074450;28;20241;-68
2021/07/29 07:48:53;;;;;;;4.97;2.17;;;;;;;19.27;61.60;100255.06;5074209;28;20175;-68
2021/07/29 07:51:18;;;;;;;6.03;2.30;;;;;;;19.30;61.36;100245.78;5075394;28;20704;-68
2021/07/29 07:53:43;;;;;;;3.17;1.90;;;;;;;19.31;60.00;100233.94;5075521;28;20171;-68
2021/07/29 07:56:08;;;;;;;3.63;2.23;;;;;;;19.48;60.13;100238.56;5075308;28;20199;-68
2021/07/29 07:58:34;;;;;;;2.67;1.63;;;;;;;19.33;59.26;100227.41;5074157;28;20670;-68
2021/07/29 08:01:03;;;;;;;2.90;2.13;;;;;;;19.27;58.32;100243.38;5076196;28;20264;-68
2021/07/29 08:03:28;;;;;;;9.30;3.10;;;;;;;19.30;58.68;100229.53;5075959;28;20174;-68
2021/07/29 08:05:53;;;;;;;8.67;4.53;;;;;;;19.21;58.48;100235.88;5075661;28;20195;-68
2021/07/29 08:08:19;;;;;;;5.17;2.13;;;;;;;19.10;58.79;100241.50;5075496;28;20523;-68
2021/07/29 08:10:48;;;;;;;3.53;1.90;;;;;;;18.89;59.10;100230.91;5074987;28;20221;-67
2021/07/29 08:13:13;;;;;;;4.00;1.97;;;;;;;18.96;59.40;100237.44;5073839;28;20178;-67
2021/07/29 08:15:39;;;;;;;3.73;1.90;;;;;;;18.92;59.61;100253.09;5075073;28;20211;-68
2021/07/29 08:18:04;;;;;;;2.43;1.57;;;;;;;18.79;59.73;100230.09;5075301;28;20159;-69
2021/07/29 08:20:30;;;;;;;2.90;1.60;;;;;;;18.66;60.07;100235.84;5075153;28;20229;-68
2021/07/29 08:22:56;;;;;;;6.77;1.97;;;;;;;18.39;61.78;100228.47;5075703;28;20690;-68
2021/07/29 08:25:22;;;;;;;3.23;1.70;;;;;;;18.33;61.81;100239.88;5074564;28;20614;-68
2021/07/29 08:27:51;;;;;;;4.67;1.97;;;;;;;18.35;62.36;100203.63;5056680;28;20240;-67
2021/07/29 08:30:17;;;;;;;2.43;1.77;;;;;;;18.40;62.28;100203.16;5073762;28;20163;-68
2021/07/29 08:32:43;;;;;;;6.03;2.30;;;;;;;18.56;61.30;100200.69;5074662;28;20182;-69
2021/07/29 08:35:09;;;;;;;5.50;1.87;;;;;;;18.12;63.32;100178.78;5073292;28;20220;-69
2021/07/29 08:37:35;;;;;;;3.63;1.70;;;;;;;18.29;63.18;100190.69;5074714;28;20270;-68
2021/07/29 08:40:00;;;;;;;3.00;1.63;;;;;;;18.96;61.71;100188.78;5074830;28;20202;-69
2021/07/29 08:42:26;;;;;;;3.60;1.77;;;;;;;19.09;61.15;100210.03;5074720;28;20171;-69
2021/07/29 08:44:52;;;;;;;2.93;1.70;;;;;;;19.63;59.56;100223.53;5056792;28;20171;-69
2021/07/29 08:47:22;;;;;;;3.00;1.83;;;;;;;19.84;58.78;100222.38;5073299;28;20607;-70
2021/07/29 08:49:50;;;;;;;3.13;1.60;;;;;;;19.34;59.24;100199.34;5073815;28;20155;-69
2021/07/29 08:52:15;;;;;;;2.03;1.60;;;;;;;19.80;58.15;100218.28;5073125;28;20178;-69
2021/07/29 08:54:41;;;;;;;8.20;2.03;;;;;;;20.14;57.10;100215.69;5073207;28;20171;-69
2021/07/29 08:57:12;;;;;;;2.70;1.60;;;;;;;19.97;57.12;100206.56;5072884;28;20191;-68
2021/07/29 08:59:38;;;;;;;4.23;1.57;;;;;;;19.72;57.05;100213.66;5074505;28;20516;-69
2021/07/29 09:02:03;;;;;;;2.13;1.67;;;;;;;20.25;56.43;100219.00;5074678;28;20186;-69
2021/07/29 09:04:29;;;;;;;5.90;2.50;;;;;;;20.34;56.28;100209.06;5074055;28;20186;-69
2021/07/29 09:06:59;;;;;;;3.43;1.57;;;;;;;20.06;55.19;100221.03;5074002;28;20222;-69
2021/07/29 09:09:47;;;;;;;3.33;2.40;;;;;;;20.65;55.34;100225.72;5074000;28;20187;-68
2021/07/29 09:12:21;;;;;;;6.47;2.83;;;;;;;20.60;55.51;100233.50;5072659;28;20151;-68
2021/07/29 09:14:48;;;;;;;3.70;1.80;;;;;;;20.08;55.83;100222.59;5074233;28;20163;-69
2021/07/29 09:17:14;;;;;;;6.00;1.63;;;;;;;19.85;56.40;100211.38;5073566;28;20690;-68
2021/07/29 09:19:44;;;;;;;3.53;2.10;;;;;;;19.79;56.04;100216.56;5072641;28;20228;-68
2021/07/29 09:22:29;;;;;;;3.10;2.17;;;;;;;19.66;55.42;100206.13;5074112;28;20567;-68
2021/07/29 09:25:05;;;;;;;1.90;1.60;;;;;;;19.35;55.17;100201.06;5072322;28;20190;-68
2021/07/29 09:27:37;;;;;;;3.50;1.40;;;;;;;19.42;56.37;100197.75;5074297;28;20198;-68
2021/07/29 09:30:26;;;;;;;3.80;1.50;;;;;;;19.71;52.62;100211.09;5073782;28;20213;-68
2021/07/29 09:33:05;;;;;;;2.50;1.53;;;;;;;19.51;52.85;100194.09;5072294;28;20159;-68
2021/07/29 09:35:35;;;;;;;5.07;1.40;;;;;;;19.46;51.93;100185.59;5073825;28;20166;-68
2021/07/29 09:38:05;;;;;;;2.43;1.60;;;;;;;19.50;52.41;100192.41;5072767;28;20174;-68
2021/07/29 09:41:01;;;;;;;2.23;1.70;;;;;;;19.61;52.93;100194.91;5073702;28;20186;-68
2021/07/29 09:43:31;;;;;;;3.27;1.40;;;;;;;19.94;53.11;100187.94;5073070;28;20610;-68
2021/07/29 09:46:01;;;;;;;2.73;1.73;;;;;;;20.02;53.91;100193.41;5073653;28;20771;-68
2021/07/29 09:48:26;;;;;;;5.10;1.50;;;;;;;20.27;54.45;100186.31;5071782;28;20195;-68
2021/07/29 09:50:58;;;;;;;3.33;1.30;;;;;;;20.59;53.84;100191.97;5072996;28;20317;-68
2021/07/29 09:53:24;;;;;;;1.70;1.33;;;;;;;20.27;52.86;100208.84;5073513;28;20624;-67
2021/07/29 09:55:49;;;;;;;2.73;1.50;;;;;;;20.50;51.87;100192.94;5073031;28;20199;-68
2021/07/29 09:58:15;;;;;;;2.07;1.57;;;;;;;20.49;52.95;100201.25;5073280;28;20578;-68
2021/07/29 10:00:40;;;;;;;7.50;2.10;;;;;;;21.43;49.86;100195.72;5071808;28;20198;-67
2021/07/29 10:03:08;;;;;;;2.77;1.37;;;;;;;21.35;49.74;100185.69;5072112;28;20193;-67
2021/07/29 10:05:53;;;;;;;2.90;1.50;;;;;;;21.43;47.57;100193.84;5071696;28;20638;-67
2021/07/29 10:08:26;;;;;;;4.07;1.40;;;;;;;21.68;45.46;100199.34;5072155;28;20662;-68
2021/07/29 10:10:52;;;;;;;3.73;1.47;;;;;;;21.70;46.37;100191.88;5072037;28;20486;-68
2021/07/29 10:13:17;;;;;;;5.13;1.43;;;;;;;21.59;45.93;100194.94;5072058;28;20178;-68
2021/07/29 10:18:10;;;;;;;3.40;1.30;;;;;;;22.60;43.06;100203.56;5112952;22;20234;-69
2021/07/29 10:20:36;;;;;;;3.33;1.40;;;;;;;22.36;41.84;100189.00;5093394;28;20194;-69
2021/07/29 10:23:14;;;;;;;2.27;1.23;;;;;;;22.28;42.30;100196.31;5092487;28;20649;-70
2021/07/29 10:25:51;;;;;;;6.03;1.20;;;;;;;22.40;42.16;100198.50;5092295;28;20216;-69
2021/07/29 10:28:27;;;;;;;1.67;1.03;;;;;;;22.69;41.32;100195.22;5073026;28;20721;-69
2021/07/29 10:30:54;;;;;;;3.07;1.20;;;;;;;22.23;41.17;100188.66;5072279;28;20201;-69
2021/07/29 10:33:20;;;;;;;4.20;1.10;;;;;;;22.00;41.64;100198.50;5072045;28;20198;-69
2021/07/29 10:35:46;;;;;;;2.87;1.40;;;;;;;21.77;42.96;100174.72;5072708;28;20185;-69
2021/07/29 10:38:11;;;;;;;3.07;1.10;;;;;;;21.77;42.56;100184.75;5071790;28;20270;-68
2021/07/29 10:40:42;;;;;;;3.73;1.30;;;;;;;21.43;43.53;100193.84;5072261;28;20230;-69
2021/07/29 10:43:25;;;;;;;2.80;1.30;;;;;;;21.09;43.98;100179.47;5071831;28;20171;-69
2021/07/29 10:45:53;;;;;;;4.57;1.17;;;;;;;20.81;44.47;100198.72;5072948;28;20178;-69
2021/07/29 10:48:51;;;;;;;3.33;1.23;;;;;;;20.70;46.08;100198.97;5074314;28;20178;-69
2021/07/29 10:51:22;;;;;;;1.17;0.90;;;;;;;20.60;47.24;100203.66;5077321;28;20246;-68
2021/07/29 10:53:50;;;;;;;4.03;1.33;;;;;;;20.74;46.07;100197.63;5076220;28;20181;-69
2021/07/29 10:56:17;;;;;;;8.70;1.27;;;;;;;21.40;45.27;100187.91;5076958;28;20186;-70
2021/07/29 10:58:47;;;;;;;2.70;1.30;;;;;;;22.06;44.19;100190.56;5075800;28;20178;-69
2021/07/29 11:01:13;;;;;;;2.60;1.50;;;;;;;22.76;42.77;100196.22;5076362;28;20229;-68
2021/07/29 11:03:50;;;;;;;4.07;2.43;;;;;;;22.46;43.00;100184.22;5075929;28;20271;-69
2021/07/29 11:06:36;;;;;;;4.30;1.60;;;;;;;21.76;44.10;100193.91;5077429;28;20237;-69
2021/07/29 11:09:20;;;;;;;5.33;1.43;;;;;;;21.42;43.73;100184.00;5076473;28;20166;-69
2021/07/29 11:11:48;;;;;;;5.83;1.67;;;;;;;21.25;44.00;100170.59;5076984;28;20236;-68
2021/07/29 11:14:46;;;;;;;4.27;1.70;;;;;;;21.49;43.44;100190.47;5077315;28;20177;-67
2021/07/29 11:17:11;;;;;;;7.53;1.50;;;;;;;21.87;43.29;100180.00;5065012;28;20783;-70
2021/07/29 11:19:44;;;;;;;3.47;1.30;;;;;;;21.67;43.00;100181.34;5076804;28;20242;-69
2021/07/29 11:22:10;;;;;;;1.83;1.10;;;;;;;21.76;42.78;100181.19;5075408;28;20179;-70
2021/07/29 11:24:36;;;;;;;2.00;1.37;;;;;;;22.23;41.30;100182.38;5076220;28;20257;-69
2021/07/29 11:27:03;;;;;;;4.20;1.50;;;;;;;23.73;38.48;100199.50;5075183;28;20285;-69